Time;durP1;ratioP1;P1;durP2;ratioP2;P2;SDS_P1;SDS_P2;PMS_P1;PMS_P2;Temp;Humidity;BMP_temperature;BMP_pressure;BME280_temperature;BME280_humidity;BME280_pressure;Samples;Min_cycle;Max_cycle;Signal;HPM_P1;HPM_P2
2023/03/30 00:02:21;;;;;;;;;;;10.90;98.00;;;;;;5109350;28;20610;-67
2023/03/30 00:04:50;;;;;;;;;;;10.90;98.00;;;;;;5109652;28;20038;-67
2023/03/30 00:07:16;;;;;;;;;;;10.90;98.00;;;;;;5109175;28;19921;-67
2023/03/30 00:09:42;;;;;;;;;;;10.90;98.00;;;;;;5107932;28;19961;-67
2023/03/30 00:12:12;;;;;;;;;;;10.90;98.00;;;;;;5109355;28;19969;-67
2023/03/30 00:14:41;;;;;;;;;;;10.90;98.00;;;;;;5109378;28;19912;-67
2023/03/30 00:17:07;;;;;;;;;;;10.90;98.00;;;;;;5109565;28;20423;-67
2023/03/30 00:19:36;;;;;;;;;;;10.90;98.00;;;;;;5109433;28;19923;-67
2023/03/30 00:22:06;;;;;;;;;;;10.80;98.00;;;;;;5109107;28;20371;-67
2023/03/30 00:24:32;;;;;;;;;;;10.80;98.00;;;;;;5109311;28;19912;-67
2023/03/30 00:26:57;;;;;;;;;;;10.80;98.00;;;;;;5109174;28;19922;-67
2023/03/30 00:29:23;;;;;;;;;;;10.80;98.00;;;;;;5109262;28;19959;-67
2023/03/30 00:31:48;;;;;;;;;;;10.80;97.90;;;;;;5107305;28;19912;-67
2023/03/30 00:34:14;;;;;;;;;;;10.90;98.00;;;;;;5109244;28;19914;-67
2023/03/30 00:36:39;;;;;;;;;;;10.90;98.00;;;;;;5109179;28;20356;-67
2023/03/30 00:39:05;;;;;;;;;;;10.90;98.10;;;;;;5108968;28;19912;-67
2023/03/30 00:41:32;;;;;;;;;;;10.90;97.90;;;;;;5108549;28;19922;-67
2023/03/30 00:44:00;;;;;;;;;;;10.90;98.00;;;;;;5108687;28;20378;-67
2023/03/30 00:46:27;;;;;;;;;;;10.90;97.90;;;;;;5108983;28;19918;-67
2023/03/30 00:48:56;;;;;;;;;;;10.90;97.80;;;;;;5107445;28;20272;-67
2023/03/30 00:51:23;;;;;;;;;;;10.90;97.90;;;;;;5108490;28;20319;-67
2023/03/30 00:53:51;;;;;;;;;;;10.90;97.90;;;;;;5108927;28;20024;-67
2023/03/30 00:56:21;;;;;;;;;;;10.80;97.80;;;;;;5108652;28;19959;-67
2023/03/30 00:58:47;;;;;;;;;;;10.90;97.90;;;;;;5108689;28;19973;-67
2023/03/30 01:01:14;;;;;;;;;;;10.80;97.90;;;;;;5108254;28;20522;-67
2023/03/30 01:03:42;;;;;;;;;;;10.80;98.00;;;;;;5108718;28;20265;-67
2023/03/30 01:06:08;;;;;;;;;;;10.80;97.90;;;;;;5108034;28;19959;-67
2023/03/30 01:08:36;;;;;;;;;;;10.80;98.00;;;;;;5107719;28;20551;-67
2023/03/30 01:11:02;;;;;;;;;;;10.80;97.90;;;;;;5108257;28;19953;-67
2023/03/30 01:13:29;;;;;;;;;;;10.80;97.90;;;;;;5108489;28;19955;-67
2023/03/30 01:16:00;;;;;;;;;;;10.80;97.90;;;;;;5106222;28;19923;-67
2023/03/30 01:18:46;;;;;;;;;;;10.80;97.90;;;;;;5095137;28;19916;-67
2023/03/30 01:21:27;;;;;;;;;;;10.80;98.00;;;;;;5107647;28;19924;-67
2023/03/30 01:24:03;;;;;;;;;;;10.80;97.90;;;;;;5104276;28;19912;-67
2023/03/30 01:26:47;;;;;;;;;;;10.80;97.90;;;;;;5107981;28;20304;-67
2023/03/30 01:29:27;;;;;;;;;;;10.80;97.90;;;;;;5108054;28;19915;-67
2023/03/30 01:32:11;;;;;;;;;;;10.80;97.80;;;;;;5107635;28;19920;-67
2023/03/30 01:34:56;;;;;;;;;;;10.90;97.70;;;;;;5104540;28;19923;-67
2023/03/30 01:37:34;;;;;;;;;;;10.90;97.70;;;;;;5087825;28;19916;-67
2023/03/30 01:40:09;;;;;;;;;;;10.90;97.60;;;;;;5091935;28;19996;-67
2023/03/30 01:42:55;;;;;;;;;;;10.90;97.60;;;;;;5107741;28;19923;-67
2023/03/30 01:45:33;;;;;;;;;;;10.90;97.50;;;;;;5102662;28;20011;-67
2023/03/30 01:48:07;;;;;;;;;;;10.90;97.50;;;;;;5087541;28;19926;-67
2023/03/30 01:50:36;;;;;;;;;;;11.00;97.50;;;;;;5087564;28;19915;-67
2023/03/30 01:53:05;;;;;;;;;;;11.00;97.60;;;;;;5095352;28;19951;-67
2023/03/30 01:55:36;;;;;;;;;;;11.00;97.50;;;;;;5106591;28;20010;-67
2023/03/30 01:58:07;;;;;;;;;;;11.00;97.80;;;;;;5106186;28;19915;-67
2023/03/30 02:00:35;;;;;;;;;;;11.00;97.50;;;;;;5107593;28;20010;-67
2023/03/30 02:03:07;;;;;;;;;;;11.00;97.50;;;;;;5107347;28;19994;-67
2023/03/30 02:05:34;;;;;;;;;;;11.00;97.40;;;;;;5107472;28;19912;-67
2023/03/30 02:08:02;;;;;;;;;;;11.10;97.50;;;;;;5103764;28;20606;-67
2023/03/30 02:10:29;;;;;;;;;;;11.10;97.50;;;;;;5107412;28;19915;-67
2023/03/30 02:12:55;;;;;;;;;;;11.10;97.50;;;;;;5104149;28;20288;-67
2023/03/30 02:15:22;;;;;;;;;;;11.10;97.50;;;;;;5107589;28;19919;-67
2023/03/30 02:17:48;;;;;;;;;;;11.10;97.50;;;;;;5107567;28;19928;-67
2023/03/30 02:20:16;;;;;;;;;;;11.10;97.50;;;;;;5110111;28;19919;-67
2023/03/30 02:22:43;;;;;;;;;;;11.10;97.50;;;;;;5111336;28;19911;-67
2023/03/30 02:25:08;;;;;;;;;;;11.10;97.40;;;;;;5111323;28;19915;-67
2023/03/30 02:27:36;;;;;;;;;;;11.20;97.40;;;;;;5111461;28;19912;-67
2023/03/30 02:30:03;;;;;;;;;;;11.20;97.40;;;;;;5110181;28;19913;-67
2023/03/30 02:32:32;;;;;;;;;;;11.20;97.40;;;;;;5111126;28;19908;-67
2023/03/30 02:35:17;;;;;;;;;;;11.20;97.40;;;;;;5111211;28;20400;-67
2023/03/30 02:37:52;;;;;;;;;;;11.20;97.50;;;;;;5111276;28;19933;-67
2023/03/30 02:40:33;;;;;;;;;;;11.20;97.40;;;;;;5109359;28;19911;-67
2023/03/30 02:43:11;;;;;;;;;;;11.30;97.50;;;;;;5110833;28;20017;-67
2023/03/30 02:45:41;;;;;;;;;;;11.20;97.50;;;;;;5111203;28;19972;-67
2023/03/30 02:48:07;;;;;;;;;;;11.30;97.40;;;;;;5110943;28;19918;-67
2023/03/30 02:50:38;;;;;;;;;;;11.30;97.40;;;;;;5110633;28;19912;-67
2023/03/30 02:53:33;;;;;;;;;;;11.30;97.50;;;;;;5110855;28;19999;-67
2023/03/30 02:55:59;;;;;;;;;;;11.30;97.50;;;;;;5101339;28;19912;-67
2023/03/30 02:58:31;;;;;;;;;;;11.30;97.50;;;;;;5109640;28;19919;-67
2023/03/30 03:01:02;;;;;;;;;;;11.30;97.50;;;;;;5110337;28;19923;-67
2023/03/30 03:03:38;;;;;;;;;;;11.30;97.50;;;;;;5110536;28;19919;-67
2023/03/30 03:06:04;;;;;;;;;;;11.30;97.60;;;;;;5106205;28;19934;-67
2023/03/30 03:08:35;;;;;;;;;;;11.30;97.50;;;;;;5110269;28;19912;-67
2023/03/30 03:11:00;;;;;;;;;;;11.30;97.60;;;;;;5110321;28;19911;-67
2023/03/30 03:13:26;;;;;;;;;;;11.30;97.60;;;;;;5110509;28;19949;-67
2023/03/30 03:15:55;;;;;;;;;;;11.30;97.70;;;;;;5110389;28;19977;-67
2023/03/30 03:18:20;;;;;;;;;;;11.30;97.70;;;;;;5108797;28;19939;-67
2023/03/30 03:20:46;;;;;;;;;;;11.20;97.70;;;;;;5109955;28;19978;-67
2023/03/30 03:23:12;;;;;;;;;;;11.20;97.70;;;;;;5109022;28;19915;-67
2023/03/30 03:25:37;;;;;;;;;;;11.30;97.70;;;;;;5110405;28;19912;-67
2023/03/30 03:28:03;;;;;;;;;;;11.30;97.70;;;;;;5110251;28;20517;-67
2023/03/30 03:30:28;;;;;;;;;;;11.30;97.60;;;;;;5109636;28;19958;-67
2023/03/30 03:32:54;;;;;;;;;;;11.30;97.60;;;;;;5110058;28;19918;-67
2023/03/30 03:35:20;;;;;;;;;;;11.30;97.60;;;;;;5108885;28;20002;-67
2023/03/30 03:37:46;;;;;;;;;;;11.30;97.60;;;;;;5110254;28;19999;-67
2023/03/30 03:40:11;;;;;;;;;;;11.30;97.50;;;;;;5109842;28;19912;-67
2023/03/30 03:42:37;;;;;;;;;;;11.30;97.50;;;;;;5109607;28;19918;-67
2023/03/30 03:45:04;;;;;;;;;;;11.30;97.40;;;;;;5109771;28;19914;-67
2023/03/30 03:47:33;;;;;;;;;;;11.40;97.40;;;;;;5109804;27;19911;-67
2023/03/30 03:50:02;;;;;;;;;;;11.40;97.40;;;;;;5109875;28;19995;-67
2023/03/30 03:52:27;;;;;;;;;;;11.40;97.40;;;;;;5109714;28;20268;-67
2023/03/30 03:54:53;;;;;;;;;;;11.40;97.40;;;;;;5109801;28;19919;-67
2023/03/30 03:57:18;;;;;;;;;;;11.40;97.50;;;;;;5109734;28;19919;-67
2023/03/30 03:59:44;;;;;;;;;;;11.40;97.60;;;;;;5109957;28;19939;-67
2023/03/30 04:02:10;;;;;;;;;;;11.40;97.60;;;;;;5109168;28;20006;-67
2023/03/30 04:04:35;;;;;;;;;;;11.40;97.60;;;;;;5109638;28;20428;-67
2023/03/30 04:07:01;;;;;;;;;;;11.40;97.60;;;;;;5105015;28;19934;-67
2023/03/30 04:09:27;;;;;;;;;;;11.40;97.60;;;;;;5109311;28;20023;-67
2023/03/30 04:11:52;;;;;;;;;;;11.40;97.60;;;;;;5109318;28;19953;-67
2023/03/30 04:14:18;;;;;;;;;;;11.40;97.60;;;;;;5109673;28;19912;-67
2023/03/30 04:16:43;;;;;;;;;;;11.30;97.60;;;;;;5109361;28;20276;-67
2023/03/30 04:19:11;;;;;;;;;;;11.40;97.60;;;;;;5109399;28;19915;-67
2023/03/30 04:21:39;;;;;;;;;;;11.40;97.60;;;;;;5109204;27;20429;-67
2023/03/30 04:24:05;;;;;;;;;;;11.40;97.50;;;;;;5109357;28;19919;-67
2023/03/30 04:26:31;;;;;;;;;;;11.40;97.50;;;;;;5107728;28;19915;-67
2023/03/30 04:28:59;;;;;;;;;;;11.40;97.50;;;;;;5109218;28;19916;-67
2023/03/30 04:31:24;;;;;;;;;;;11.40;97.50;;;;;;5108921;28;19919;-67
2023/03/30 04:33:51;;;;;;;;;;;11.40;97.50;;;;;;5109291;28;19912;-67
2023/03/30 04:36:18;;;;;;;;;;;11.40;97.50;;;;;;5108986;28;19915;-67
2023/03/30 04:38:44;;;;;;;;;;;11.50;97.50;;;;;;5109171;28;19947;-67
2023/03/30 04:41:12;;;;;;;;;;;11.50;97.40;;;;;;5108315;28;19955;-67
2023/03/30 04:43:39;;;;;;;;;;;11.50;97.40;;;;;;5108678;28;19989;-67
2023/03/30 04:46:04;;;;;;;;;;;11.50;97.40;;;;;;5107663;28;19912;-67
2023/03/30 04:48:30;;;;;;;;;;;11.50;97.40;;;;;;5108842;28;19911;-67
2023/03/30 04:50:55;;;;;;;;;;;11.50;97.40;;;;;;5108855;28;19916;-67
2023/03/30 04:53:21;;;;;;;;;;;11.50;97.50;;;;;;5108936;28;19911;-67
2023/03/30 04:55:48;;;;;;;;;;;11.50;97.50;;;;;;5109140;28;20385;-67
2023/03/30 04:58:14;;;;;;;;;;;11.50;97.50;;;;;;5108617;28;20313;-67
2023/03/30 05:00:40;;;;;;;;;;;11.50;97.60;;;;;;5108506;28;19922;-67
2023/03/30 05:03:05;;;;;;;;;;;11.50;97.60;;;;;;5108526;28;20567;-67
2023/03/30 05:05:31;;;;;;;;;;;11.40;97.50;;;;;;5108500;28;19919;-67
2023/03/30 05:07:57;;;;;;;;;;;11.40;97.60;;;;;;5107792;28;19916;-67
2023/03/30 05:10:22;;;;;;;;;;;11.40;97.70;;;;;;5108248;28;19908;-67
2023/03/30 05:12:48;;;;;;;;;;;11.40;97.60;;;;;;5108207;28;20287;-67
2023/03/30 05:15:14;;;;;;;;;;;11.40;97.70;;;;;;5108100;28;19918;-67
2023/03/30 05:17:39;;;;;;;;;;;11.40;97.70;;;;;;5108289;28;19912;-67
2023/03/30 05:20:08;;;;;;;;;;;11.50;97.70;;;;;;5107993;28;19920;-67
2023/03/30 05:22:34;;;;;;;;;;;11.50;97.70;;;;;;5106657;28;20027;-67
2023/03/30 05:25:00;;;;;;;;;;;11.50;97.70;;;;;;5108202;28;19998;-67
2023/03/30 05:27:25;;;;;;;;;;;11.50;97.70;;;;;;5108215;28;20006;-67
2023/03/30 05:29:51;;;;;;;;;;;11.50;97.60;;;;;;5108278;28;20430;-67
2023/03/30 05:32:17;;;;;;;;;;;11.50;97.60;;;;;;5107583;28;19920;-67
2023/03/30 05:34:42;;;;;;;;;;;11.60;97.70;;;;;;5106596;28;19919;-67
2023/03/30 05:37:08;;;;;;;;;;;11.50;97.60;;;;;;5108316;28;19927;-67
2023/03/30 05:39:33;;;;;;;;;;;11.60;97.60;;;;;;5107966;28;19920;-67
2023/03/30 05:42:00;;;;;;;;;;;11.60;97.60;;;;;;5106306;28;19959;-67
2023/03/30 05:44:25;;;;;;;;;;;11.60;97.60;;;;;;5108115;28;19911;-67
2023/03/30 05:46:51;;;;;;;;;;;11.60;97.60;;;;;;5107924;28;19911;-67
2023/03/30 05:49:17;;;;;;;;;;;11.60;97.60;;;;;;5108144;28;19915;-67
2023/03/30 05:51:42;;;;;;;;;;;11.60;97.60;;;;;;5107902;28;19981;-67
2023/03/30 05:54:11;;;;;;;;;;;11.60;97.60;;;;;;5109465;28;19954;-67
2023/03/30 05:56:37;;;;;;;;;;;11.60;97.60;;;;;;5111663;28;19912;-67
2023/03/30 05:59:04;;;;;;;;;;;11.60;97.70;;;;;;5111427;28;19914;-67
2023/03/30 06:01:29;;;;;;;;;;;11.60;97.70;;;;;;5109689;28;19911;-67
2023/03/30 06:03:55;;;;;;;;;;;11.60;97.70;;;;;;5111451;28;20485;-67
2023/03/30 06:06:21;;;;;;;;;;;11.60;97.70;;;;;;5111091;28;19916;-67
2023/03/30 06:08:47;;;;;;;;;;;11.60;97.70;;;;;;5111055;28;20388;-67
2023/03/30 06:11:12;;;;;;;;;;;11.60;97.80;;;;;;5110529;27;19957;-67
2023/03/30 06:13:38;;;;;;;;;;;11.60;97.70;;;;;;5111111;28;20356;-67
2023/03/30 06:16:04;;;;;;;;;;;11.60;97.70;;;;;;5111026;28;19911;-67
2023/03/30 06:18:29;;;;;;;;;;;11.60;97.70;;;;;;5111089;28;20261;-67
2023/03/30 06:20:55;;;;;;;;;;;11.60;97.80;;;;;;5110660;28;19926;-67
2023/03/30 06:23:21;;;;;;;;;;;11.60;97.80;;;;;;5111142;28;20506;-67
2023/03/30 06:25:51;;;;;;;;;;;11.60;97.80;;;;;;5107739;27;19919;-67
2023/03/30 06:28:20;;;;;;;;;;;11.60;97.80;;;;;;5111973;27;19969;-67
2023/03/30 06:30:47;;;;;;;;;;;11.60;97.80;;;;;;5108099;27;19919;-67
2023/03/30 06:33:16;;;;;;;;;;;11.60;97.80;;;;;;5112417;27;19926;-67
2023/03/30 06:35:49;;;;;;;;;;;11.60;97.80;;;;;;5118959;27;19911;-67
2023/03/30 06:38:15;;;;;;;;;;;11.60;97.80;;;;;;5102110;28;19965;-67
2023/03/30 06:40:41;;;;;;;;;;;11.60;97.80;;;;;;5100637;28;20364;-67
2023/03/30 06:43:07;;;;;;;;;;;11.60;97.70;;;;;;5111124;28;19964;-67
2023/03/30 06:45:33;;;;;;;;;;;11.70;97.70;;;;;;5111093;28;19950;-67
2023/03/30 06:47:58;;;;;;;;;;;11.70;97.80;;;;;;5109493;28;19912;-67
2023/03/30 06:50:24;;;;;;;;;;;11.70;97.70;;;;;;5110485;27;19953;-67
2023/03/30 06:52:49;;;;;;;;;;;11.70;97.70;;;;;;5110857;28;19912;-67
2023/03/30 06:55:15;;;;;;;;;;;11.70;97.60;;;;;;5110841;28;20373;-67
2023/03/30 06:57:40;;;;;;;;;;;11.80;97.60;;;;;;5110756;28;19911;-67
2023/03/30 07:00:12;;;;;;;;;;;11.80;97.50;;;;;;5110416;28;20389;-67
2023/03/30 07:02:39;;;;;;;;;;;11.90;97.50;;;;;;5110091;28;19926;-67
2023/03/30 07:05:06;;;;;;;;;;;11.90;97.40;;;;;;5109631;28;19912;-67
2023/03/30 07:07:31;;;;;;;;;;;12.00;97.40;;;;;;5109883;28;19919;-67
2023/03/30 07:09:57;;;;;;;;;;;12.00;97.30;;;;;;5109793;28;19964;-67
2023/03/30 07:12:22;;;;;;;;;;;12.00;97.40;;;;;;5109598;28;19943;-67
2023/03/30 07:14:48;;;;;;;;;;;12.00;97.40;;;;;;5108488;28;19918;-67
2023/03/30 07:17:13;;;;;;;;;;;12.10;97.30;;;;;;5099698;28;19915;-67
2023/03/30 07:19:39;;;;;;;;;;;12.10;97.30;;;;;;5107058;28;19947;-67
2023/03/30 07:22:04;;;;;;;;;;;12.10;97.40;;;;;;5108033;27;20030;-67
2023/03/30 07:24:30;;;;;;;;;;;12.10;97.40;;;;;;5089611;28;20306;-67
2023/03/30 07:26:56;;;;;;;;;;;12.10;97.40;;;;;;5097191;28;19930;-67
2023/03/30 07:29:21;;;;;;;;;;;12.20;97.40;;;;;;5109345;28;19919;-67
2023/03/30 07:31:47;;;;;;;;;;;12.20;97.40;;;;;;5109378;28;19912;-67
2023/03/30 07:34:12;;;;;;;;;;;12.20;97.50;;;;;;5107046;28;19912;-67
2023/03/30 07:36:38;;;;;;;;;;;12.20;97.50;;;;;;5109813;28;19916;-67
2023/03/30 07:39:05;;;;;;;;;;;12.20;97.50;;;;;;5108735;28;20006;-67
2023/03/30 07:41:31;;;;;;;;;;;12.20;97.50;;;;;;5109359;28;19923;-67
2023/03/30 07:43:56;;;;;;;;;;;12.20;97.50;;;;;;5109797;28;19916;-67
2023/03/30 07:46:22;;;;;;;;;;;12.20;97.50;;;;;;5108858;28;19943;-67
2023/03/30 07:48:47;;;;;;;;;;;12.20;97.60;;;;;;5107963;28;20402;-67
2023/03/30 07:51:13;;;;;;;;;;;12.20;97.50;;;;;;5106763;28;19995;-67
2023/03/30 07:53:39;;;;;;;;;;;12.20;97.50;;;;;;5106044;28;19912;-67
2023/03/30 07:56:05;;;;;;;;;;;12.20;97.60;;;;;;5108626;28;19919;-67
2023/03/30 07:58:31;;;;;;;;;;;12.30;97.50;;;;;;5108378;28;19916;-67
2023/03/30 08:00:57;;;;;;;;;;;12.30;97.50;;;;;;5108011;28;19919;-67
2023/03/30 08:03:23;;;;;;;;;;;12.30;97.50;;;;;;5108357;28;20502;-67
2023/03/30 08:05:56;;;;;;;;;;;12.30;97.40;;;;;;5106142;28;19912;-67
2023/03/30 08:08:22;;;;;;;;;;;12.40;97.30;;;;;;5107192;28;19915;-67
2023/03/30 08:10:47;;;;;;;;;;;12.40;97.30;;;;;;5107932;28;19912;-67
2023/03/30 08:13:13;;;;;;;;;;;12.50;97.20;;;;;;5108186;28;19907;-67
2023/03/30 08:15:39;;;;;;;;;;;12.50;97.30;;;;;;5107767;28;19979;-67
2023/03/30 08:18:06;;;;;;;;;;;12.50;97.40;;;;;;5106394;28;20451;-67
2023/03/30 08:20:36;;;;;;;;;;;12.50;97.40;;;;;;5108009;28;19972;-67
2023/03/30 08:23:01;;;;;;;;;;;12.50;97.30;;;;;;5107915;28;19934;-67
2023/03/30 08:25:27;;;;;;;;;;;12.60;97.30;;;;;;5107891;28;20536;-66
2023/03/30 08:27:52;;;;;;;;;;;12.60;97.30;;;;;;5107944;28;19912;-67
2023/03/30 08:30:18;;;;;;;;;;;12.60;97.30;;;;;;5108028;28;20304;-67
2023/03/30 08:32:44;;;;;;;;;;;12.70;97.30;;;;;;5106716;28;20272;-67
2023/03/30 08:35:10;;;;;;;;;;;12.70;97.30;;;;;;5108175;28;20515;-67
2023/03/30 08:37:36;;;;;;;;;;;12.70;97.20;;;;;;5102329;28;19919;-67
2023/03/30 08:40:05;;;;;;;;;;;12.70;97.30;;;;;;5106859;28;19916;-67
2023/03/30 08:42:49;;;;;;;;;;;12.80;97.20;;;;;;5107036;28;19915;-66
2023/03/30 08:45:15;;;;;;;;;;;12.80;97.10;;;;;;5105360;28;20462;-67
2023/03/30 08:47:42;;;;;;;;;;;12.80;97.20;;;;;;5107543;28;19919;-67
2023/03/30 08:50:14;;;;;;;;;;;12.90;97.20;;;;;;5107353;28;19912;-67
2023/03/30 08:52:40;;;;;;;;;;;12.90;97.20;;;;;;5101900;28;19912;-67
2023/03/30 08:55:18;;;;;;;;;;;12.90;97.20;;;;;;5107416;28;19912;-67
2023/03/30 08:57:53;;;;;;;;;;;13.00;97.10;;;;;;5106870;28;19991;-67
2023/03/30 09:00:24;;;;;;;;;;;13.00;97.00;;;;;;5104592;28;19911;-67
2023/03/30 09:02:51;;;;;;;;;;;13.00;96.90;;;;;;5106958;28;19995;-67
2023/03/30 09:05:31;;;;;;;;;;;13.10;97.00;;;;;;5106960;28;19915;-66
2023/03/30 09:08:03;;;;;;;;;;;13.10;97.00;;;;;;5106908;28;19998;-67
2023/03/30 09:10:30;;;;;;;;;;;13.10;97.00;;;;;;5106690;28;19995;-67
2023/03/30 09:12:58;;;;;;;;;;;13.20;96.90;;;;;;5106678;28;20364;-67
2023/03/30 09:15:24;;;;;;;;;;;13.20;96.90;;;;;;5107228;28;19911;-67
2023/03/30 09:18:00;;;;;;;;;;;13.30;96.90;;;;;;5105676;28;20376;-67
2023/03/30 09:20:27;;;;;;;;;;;13.30;96.90;;;;;;5104835;28;20359;-67
2023/03/30 09:22:53;;;;;;;;;;;13.30;96.80;;;;;;5105878;28;19921;-66
2023/03/30 09:25:24;;;;;;;;;;;13.30;96.80;;;;;;5103075;28;19915;-67
2023/03/30 09:27:54;;;;;;;;;;;13.30;96.80;;;;;;5103979;28;19912;-66
2023/03/30 09:30:21;;;;;;;;;;;13.30;96.80;;;;;;5106781;28;19957;-67
2023/03/30 09:32:57;;;;;;;;;;;13.40;96.80;;;;;;5103856;28;19916;-67
2023/03/30 09:35:25;;;;;;;;;;;13.40;96.90;;;;;;5106624;28;19911;-67
2023/03/30 09:37:51;;;;;;;;;;;13.40;96.80;;;;;;5107037;28;19962;-67
2023/03/30 09:40:25;;;;;;;;;;;13.40;96.90;;;;;;5106884;28;19943;-67
2023/03/30 09:42:51;;;;;;;;;;;13.40;96.80;;;;;;5102755;28;20030;-66
2023/03/30 09:45:21;;;;;;;;;;;13.50;96.70;;;;;;5106882;28;20381;-67
2023/03/30 09:47:47;;;;;;;;;;;13.50;96.60;;;;;;5104253;28;19927;-67
2023/03/30 09:50:15;;;;;;;;;;;13.60;96.60;;;;;;5107058;28;20313;-67
2023/03/30 09:52:52;;;;;;;;;;;13.60;96.50;;;;;;5105616;28;19914;-66
2023/03/30 09:55:20;;;;;;;;;;;13.60;96.70;;;;;;5105458;28;20480;-67
2023/03/30 09:57:49;;;;;;;;;;;13.60;96.70;;;;;;5106673;28;20006;-67
2023/03/30 10:00:28;;;;;;;;;;;13.50;96.80;;;;;;5107112;28;19911;-67
2023/03/30 10:02:56;;;;;;;;;;;13.50;96.80;;;;;;5107250;28;19943;-66
2023/03/30 10:05:21;;;;;;;;;;;13.50;96.70;;;;;;5103298;28;19920;-67
2023/03/30 10:07:52;;;;;;;;;;;13.50;96.90;;;;;;5105890;28;19969;-67
2023/03/30 10:10:24;;;;;;;;;;;13.50;97.00;;;;;;5104478;28;19973;-67
2023/03/30 10:12:52;;;;;;;;;;;13.40;97.00;;;;;;5101064;28;19928;-67
2023/03/30 10:15:19;;;;;;;;;;;13.40;97.10;;;;;;5106334;28;19912;-66
2023/03/30 10:17:46;;;;;;;;;;;13.40;97.20;;;;;;5106431;28;19961;-67
2023/03/30 10:20:13;;;;;;;;;;;13.30;97.20;;;;;;5106422;28;19920;-67
2023/03/30 10:22:50;;;;;;;;;;;13.30;97.40;;;;;;5104769;28;19942;-67
2023/03/30 10:25:20;;;;;;;;;;;13.30;97.40;;;;;;5104596;28;19912;-66
2023/03/30 10:27:48;;;;;;;;;;;13.20;97.50;;;;;;5106590;28;20380;-66
2023/03/30 10:30:17;;;;;;;;;;;13.20;97.50;;;;;;5105055;28;20545;-67
2023/03/30 10:32:46;;;;;;;;;;;13.10;97.60;;;;;;5106215;27;19965;-67
2023/03/30 10:35:16;;;;;;;;;;;13.10;97.70;;;;;;5104048;28;20138;-67
2023/03/30 10:37:43;;;;;;;;;;;13.00;97.70;;;;;;5106594;28;19939;-67
2023/03/30 10:40:14;;;;;;;;;;;13.00;97.80;;;;;;5104494;28;19912;-67
2023/03/30 10:42:40;;;;;;;;;;;13.00;97.90;;;;;;5109727;28;19965;-67
2023/03/30 10:45:06;;;;;;;;;;;13.00;97.90;;;;;;5109932;28;20360;-67
2023/03/30 10:47:36;;;;;;;;;;;13.00;97.90;;;;;;5110087;28;19911;-67
2023/03/30 10:50:07;;;;;;;;;;;13.00;97.80;;;;;;5109857;28;19918;-67
2023/03/30 10:52:32;;;;;;;;;;;13.00;97.80;;;;;;5101922;27;19912;-67
2023/03/30 10:54:58;;;;;;;;;;;13.00;97.70;;;;;;5109710;27;20375;-67
2023/03/30 10:57:29;;;;;;;;;;;13.10;97.70;;;;;;5110775;27;19961;-67
2023/03/30 11:00:14;;;;;;;;;;;13.10;97.60;;;;;;5108989;28;19918;-67
2023/03/30 11:02:49;;;;;;;;;;;13.10;97.50;;;;;;5107806;28;19916;-67
2023/03/30 11:05:17;;;;;;;;;;;13.10;97.50;;;;;;5108006;28;20028;-66
2023/03/30 11:07:46;;;;;;;;;;;13.20;97.50;;;;;;5109938;28;19947;-67
2023/03/30 11:10:15;;;;;;;;;;;13.30;97.30;;;;;;5107389;28;19934;-67
2023/03/30 11:12:42;;;;;;;;;;;13.50;97.10;;;;;;5109465;28;20660;-66
2023/03/30 11:15:12;;;;;;;;;;;13.50;96.90;;;;;;5108047;28;19916;-67
2023/03/30 11:17:43;;;;;;;;;;;13.70;96.70;;;;;;5109624;27;19916;-67
2023/03/30 11:20:22;;;;;;;;;;;13.70;96.50;;;;;;5108307;28;19924;-67
2023/03/30 11:22:50;;;;;;;;;;;13.80;96.50;;;;;;5109659;28;19922;-66
2023/03/30 11:25:36;;;;;;;;;;;13.80;96.80;;;;;;5109362;28;20357;-66
2023/03/30 11:28:20;;;;;;;;;;;13.80;96.90;;;;;;5109099;28;19919;-66
2023/03/30 11:30:46;;;;;;;;;;;13.80;97.00;;;;;;5109524;28;20025;-67
2023/03/30 11:33:28;;;;;;;;;;;13.80;97.00;;;;;;5109516;28;19919;-66
2023/03/30 11:35:56;;;;;;;;;;;13.90;97.20;;;;;;5109459;28;19965;-67
2023/03/30 11:38:40;;;;;;;;;;;14.00;97.10;;;;;;5109213;28;19915;-66
2023/03/30 11:41:12;;;;;;;;;;;14.00;96.90;;;;;;5107988;28;20014;-67
2023/03/30 11:43:38;;;;;;;;;;;14.00;97.10;;;;;;5109237;28;19954;-66
2023/03/30 11:46:25;;;;;;;;;;;14.10;97.00;;;;;;5109228;28;19916;-66
2023/03/30 11:49:15;;;;;;;;;;;14.20;96.90;;;;;;5108287;28;19911;-66
2023/03/30 11:51:59;;;;;;;;;;;14.30;96.70;;;;;;5109133;28;19986;-66
2023/03/30 11:54:44;;;;;;;;;;;14.30;97.00;;;;;;5089525;28;19912;-67
2023/03/30 11:57:12;;;;;;;;;;;14.30;97.00;;;;;;5089819;28;19986;-67
2023/03/30 11:59:53;;;;;;;;;;;14.30;96.80;;;;;;5089438;28;19916;-67
2023/03/30 12:02:18;;;;;;;;;;;14.30;96.90;;;;;;5107838;28;19922;-66
2023/03/30 12:04:44;;;;;;;;;;;14.40;96.70;;;;;;5105885;28;19912;-66
2023/03/30 12:07:15;;;;;;;;;;;14.60;96.60;;;;;;5109754;28;19908;-67
2023/03/30 12:09:45;;;;;;;;;;;14.60;96.60;;;;;;5104924;28;19960;-66
2023/03/30 12:12:14;;;;;;;;;;;14.50;96.70;;;;;;5108838;28;19930;-66
2023/03/30 12:15:02;;;;;;;;;;;14.50;96.70;;;;;;5108920;28;19927;-66
2023/03/30 12:17:37;;;;;;;;;;;14.40;96.90;;;;;;5107067;28;19943;-66
2023/03/30 12:20:26;;;;;;;;;;;14.40;97.00;;;;;;5107735;28;20020;-67
2023/03/30 12:22:55;;;;;;;;;;;14.40;97.10;;;;;;5100499;28;19915;-67
2023/03/30 12:25:21;;;;;;;;;;;14.40;97.00;;;;;;5109110;28;19911;-67
2023/03/30 12:27:59;;;;;;;;;;;14.40;97.00;;;;;;5109157;28;19915;-66
2023/03/30 12:30:25;;;;;;;;;;;14.30;96.90;;;;;;5108923;28;19911;-67
2023/03/30 12:32:58;;;;;;;;;;;14.30;97.20;;;;;;5107288;28;19916;-67
2023/03/30 12:35:43;;;;;;;;;;;14.30;97.10;;;;;;5108663;28;19992;-67
2023/03/30 12:38:15;;;;;;;;;;;14.30;97.30;;;;;;5108471;28;19964;-67
2023/03/30 12:40:45;;;;;;;;;;;14.30;97.30;;;;;;5108674;27;19957;-66
2023/03/30 12:43:19;;;;;;;;;;;14.20;97.30;;;;;;5108874;28;19911;-67
2023/03/30 12:46:01;;;;;;;;;;;14.20;97.40;;;;;;5109329;27;19927;-67
2023/03/30 12:48:26;;;;;;;;;;;14.20;97.50;;;;;;5108986;28;19951;-67
2023/03/30 12:51:05;;;;;;;;;;;14.20;97.60;;;;;;5107349;28;19991;-67
2023/03/30 12:53:50;;;;;;;;;;;14.20;97.60;;;;;;5108668;27;20019;-67
2023/03/30 12:56:34;;;;;;;;;;;14.10;97.50;;;;;;5108765;28;19912;-67
2023/03/30 12:59:07;;;;;;;;;;;14.10;97.30;;;;;;5108593;28;19912;-67
2023/03/30 13:01:48;;;;;;;;;;;14.20;97.20;;;;;;5107623;28;20315;-67
2023/03/30 13:04:24;;;;;;;;;;;14.20;97.10;;;;;;5107746;28;19922;-66
2023/03/30 13:06:51;;;;;;;;;;;14.10;97.20;;;;;;5104738;28;19941;-67
2023/03/30 13:09:24;;;;;;;;;;;14.20;97.20;;;;;;5107380;28;20369;-67
2023/03/30 13:11:52;;;;;;;;;;;14.10;97.20;;;;;;5114264;27;19907;-66
2023/03/30 13:14:26;;;;;;;;;;;14.10;97.30;;;;;;5113892;27;19908;-66
2023/03/30 13:16:51;;;;;;;;;;;14.00;97.30;;;;;;5107687;28;19908;-66
2023/03/30 13:19:32;;;;;;;;;;;14.00;97.50;;;;;;5107090;28;20272;-66
2023/03/30 13:22:16;;;;;;;;;;;14.00;97.60;;;;;;5107447;28;20077;-67
2023/03/30 13:24:51;;;;;;;;;;;13.90;97.80;;;;;;5106754;28;19912;-67
2023/03/30 13:27:16;;;;;;;;;;;13.80;97.90;;;;;;5108106;28;20264;-67
2023/03/30 13:29:48;;;;;;;;;;;13.80;97.90;;;;;;5108200;28;19912;-67
2023/03/30 13:32:19;;;;;;;;;;;13.70;97.90;;;;;;5107894;28;19912;-67
2023/03/30 13:34:55;;;;;;;;;;;13.70;98.00;;;;;;5108158;28;19912;-67
2023/03/30 13:37:30;;;;;;;;;;;13.70;98.00;;;;;;5108159;28;19956;-67
2023/03/30 13:40:04;;;;;;;;;;;13.70;97.80;;;;;;5108051;28;19919;-67
2023/03/30 13:42:34;;;;;;;;;;;13.80;97.70;;;;;;5107838;28;19912;-67
2023/03/30 13:45:00;;;;;;;;;;;13.90;97.60;;;;;;5108145;28;19915;-67
2023/03/30 13:47:31;;;;;;;;;;;13.90;97.50;;;;;;5108131;28;19912;-67
2023/03/30 13:49:56;;;;;;;;;;;13.90;97.50;;;;;;5107771;28;20007;-67
2023/03/30 13:52:27;;;;;;;;;;;14.00;97.70;;;;;;5107844;28;20002;-67
2023/03/30 13:54:52;;;;;;;;;;;14.00;97.60;;;;;;5107668;28;19962;-67
2023/03/30 13:57:18;;;;;;;;;;;14.00;97.80;;;;;;5107970;28;19920;-67
2023/03/30 14:00:03;;;;;;;;;;;14.10;98.00;;;;;;5107755;28;19919;-67
2023/03/30 14:02:29;;;;;;;;;;;14.20;98.10;;;;;;5107368;28;19911;-67
2023/03/30 14:05:09;;;;;;;;;;;14.20;98.10;;;;;;5094077;28;19912;-67
2023/03/30 14:07:39;;;;;;;;;;;14.30;97.80;;;;;;5107261;28;19919;-67
2023/03/30 14:10:05;;;;;;;;;;;14.40;97.70;;;;;;5103376;28;19912;-67
2023/03/30 14:12:32;;;;;;;;;;;14.40;97.60;;;;;;5107364;28;19946;-67
2023/03/30 14:14:58;;;;;;;;;;;14.50;97.60;;;;;;5110285;28;20742;-66
2023/03/30 14:17:24;;;;;;;;;;;14.60;97.40;;;;;;5111768;27;19912;-67
2023/03/30 14:19:50;;;;;;;;;;;14.60;97.30;;;;;;5111561;28;19920;-67
2023/03/30 14:22:20;;;;;;;;;;;14.70;97.40;;;;;;5111468;28;19922;-66
2023/03/30 14:24:56;;;;;;;;;;;14.70;97.30;;;;;;5111643;28;19918;-66
2023/03/30 14:27:22;;;;;;;;;;;14.70;97.30;;;;;;5111762;28;19939;-66
2023/03/30 14:29:51;;;;;;;;;;;14.70;97.30;;;;;;5111685;28;20541;-67